Time;durP1;ratioP1;P1;durP2;ratioP2;P2;SDS_P1;SDS_P2;PMS_P1;PMS_P2;Temp;Humidity;BMP_temperature;BMP_pressure;BME280_temperature;BME280_humidity;BME280_pressure;Samples;Min_cycle;Max_cycle;Signal;HPM_P1;HPM_P2
2023/07/25 00:01:52;;;;;;;7.63;4.22;;;;;;;;;;5048973;28;20025;-75
2023/07/25 00:04:18;;;;;;;6.22;3.95;;;;;;;;;;5058028;28;20024;-75
2023/07/25 00:06:44;;;;;;;6.80;4.50;;;;;;;;;;5056359;28;20040;-75
2023/07/25 00:09:10;;;;;;;5.78;3.83;;;;;;;;;;5060278;28;20042;-75
2023/07/25 00:11:36;;;;;;;5.78;3.88;;;;;;;;;;5069263;28;20032;-74
2023/07/25 00:14:02;;;;;;;5.90;4.15;;;;;;;;;;5063927;28;20056;-74
2023/07/25 00:16:28;;;;;;;7.55;4.10;;;;;;;;;;5060515;28;20038;-74
2023/07/25 00:18:54;;;;;;;6.28;3.58;;;;;;;;;;5057654;28;20025;-75
2023/07/25 00:21:24;;;;;;;7.28;3.90;;;;;;;;;;5059086;28;20115;-76
2023/07/25 00:23:50;;;;;;;9.02;4.38;;;;;;;;;;5073730;28;20461;-74
2023/07/25 00:26:19;;;;;;;5.75;3.80;;;;;;;;;;5061731;28;20033;-75
2023/07/25 00:28:45;;;;;;;7.13;4.00;;;;;;;;;;5070496;28;20036;-74
2023/07/25 00:31:11;;;;;;;6.25;4.43;;;;;;;;;;5064250;28;20036;-76
2023/07/25 00:33:37;;;;;;;6.78;4.40;;;;;;;;;;5067229;28;20060;-75
2023/07/25 00:36:03;;;;;;;5.35;3.72;;;;;;;;;;5062931;28;20800;-74
2023/07/25 00:38:29;;;;;;;6.57;4.13;;;;;;;;;;5067747;28;20119;-76
2023/07/25 00:40:55;;;;;;;6.30;4.18;;;;;;;;;;5055472;28;20066;-75
2023/07/25 00:43:21;;;;;;;5.45;4.00;;;;;;;;;;5066758;28;20020;-76
2023/07/25 00:45:48;;;;;;;6.35;3.55;;;;;;;;;;5065174;28;20075;-76
2023/07/25 00:48:14;;;;;;;7.25;3.42;;;;;;;;;;5066695;28;20469;-74
2023/07/25 00:50:40;;;;;;;7.00;4.10;;;;;;;;;;5056592;28;20032;-74
2023/07/25 00:53:09;;;;;;;5.47;4.72;;;;;;;;;;5063117;28;20024;-74
2023/07/25 00:55:35;;;;;;;5.70;3.67;;;;;;;;;;5056536;28;20135;-76
2023/07/25 00:58:02;;;;;;;5.60;2.97;;;;;;;;;;5056128;28;20032;-75
2023/07/25 01:00:28;;;;;;;5.60;3.72;;;;;;;;;;5059686;28;20035;-74
2023/07/25 01:02:54;;;;;;;6.97;3.67;;;;;;;;;;5055824;28;20021;-75
2023/07/25 01:05:20;;;;;;;5.20;3.75;;;;;;;;;;5063045;28;20110;-76
2023/07/25 01:07:47;;;;;;;5.13;3.65;;;;;;;;;;5066928;28;20036;-76
2023/07/25 01:10:14;;;;;;;4.75;3.75;;;;;;;;;;5063489;28;20497;-75
2023/07/25 01:12:40;;;;;;;5.35;3.75;;;;;;;;;;5055019;28;21181;-75
2023/07/25 01:15:07;;;;;;;4.18;3.38;;;;;;;;;;5061321;28;20036;-76
2023/07/25 01:17:35;;;;;;;5.25;3.55;;;;;;;;;;5056748;28;20063;-76
2023/07/25 01:20:02;;;;;;;4.05;3.00;;;;;;;;;;5055973;28;20028;-75
2023/07/25 01:22:29;;;;;;;5.60;2.80;;;;;;;;;;5051731;28;20085;-76
2023/07/25 01:24:55;;;;;;;4.40;2.92;;;;;;;;;;5058632;28;20074;-74
2023/07/25 01:27:21;;;;;;;5.30;3.03;;;;;;;;;;5050626;28;20048;-76
2023/07/25 01:29:47;;;;;;;4.40;3.00;;;;;;;;;;5055270;28;20052;-74
2023/07/25 01:32:14;;;;;;;5.70;3.30;;;;;;;;;;5053755;28;20104;-76
2023/07/25 01:34:40;;;;;;;7.68;3.40;;;;;;;;;;5059766;28;20479;-76
2023/07/25 01:37:06;;;;;;;7.40;3.17;;;;;;;;;;5058722;28;20032;-74
2023/07/25 01:39:32;;;;;;;4.88;3.40;;;;;;;;;;5057463;28;20021;-76
2023/07/25 01:41:58;;;;;;;3.97;3.03;;;;;;;;;;5061835;28;20092;-76
2023/07/25 01:44:24;;;;;;;4.47;3.10;;;;;;;;;;5068901;28;20024;-75
2023/07/25 01:46:51;;;;;;;4.95;3.08;;;;;;;;;;5060577;28;20029;-76
2023/07/25 01:49:17;;;;;;;5.78;4.07;;;;;;;;;;5061979;28;20036;-75
2023/07/25 01:51:43;;;;;;;6.68;3.35;;;;;;;;;;5066319;28;20028;-76
2023/07/25 01:54:09;;;;;;;4.45;2.88;;;;;;;;;;5060560;28;20039;-75
2023/07/25 01:56:35;;;;;;;3.75;2.70;;;;;;;;;;5066797;28;20036;-76
2023/07/25 01:59:01;;;;;;;4.50;2.95;;;;;;;;;;5062273;28;20371;-76
2023/07/25 02:01:27;;;;;;;5.50;3.50;;;;;;;;;;5065707;28;20478;-76
2023/07/25 02:03:53;;;;;;;4.05;3.13;;;;;;;;;;5066924;28;20187;-76
2023/07/25 02:06:19;;;;;;;4.80;3.13;;;;;;;;;;5062707;28;20112;-75
2023/07/25 02:08:45;;;;;;;5.45;3.15;;;;;;;;;;5064173;28;20380;-74
2023/07/25 02:11:11;;;;;;;4.65;2.78;;;;;;;;;;5074736;28;20039;-74
2023/07/25 02:13:38;;;;;;;4.63;3.10;;;;;;;;;;5069114;28;20032;-75
2023/07/25 02:16:04;;;;;;;5.13;2.92;;;;;;;;;;5067358;28;20066;-75
2023/07/25 02:18:30;;;;;;;5.82;2.95;;;;;;;;;;5052685;28;20082;-75
2023/07/25 02:20:56;;;;;;;4.80;2.97;;;;;;;;;;5066089;28;20021;-75
2023/07/25 02:23:22;;;;;;;5.03;3.42;;;;;;;;;;5063369;28;20321;-77
2023/07/25 02:25:49;;;;;;;7.40;3.28;;;;;;;;;;5057440;28;20568;-73
2023/07/25 02:28:15;;;;;;;4.35;2.90;;;;;;;;;;5072173;28;20044;-74
2023/07/25 02:30:41;;;;;;;4.82;3.42;;;;;;;;;;5067515;28;20060;-73
2023/07/25 02:33:07;;;;;;;5.45;3.30;;;;;;;;;;5057991;28;20032;-73
2023/07/25 02:35:34;;;;;;;3.65;2.70;;;;;;;;;;5058977;28;20434;-73
2023/07/25 02:38:00;;;;;;;5.32;2.92;;;;;;;;;;5067928;28;20039;-73
2023/07/25 02:40:26;;;;;;;5.82;3.10;;;;;;;;;;5065773;28;20043;-73
2023/07/25 02:42:52;;;;;;;3.65;2.67;;;;;;;;;;5060460;28;20480;-72
2023/07/25 02:45:18;;;;;;;5.55;2.88;;;;;;;;;;5061095;28;20420;-73
2023/07/25 02:47:44;;;;;;;4.63;3.20;;;;;;;;;;5055012;28;20024;-73
2023/07/25 02:50:10;;;;;;;4.50;2.90;;;;;;;;;;5066580;28;20509;-73
2023/07/25 02:52:36;;;;;;;4.63;3.20;;;;;;;;;;5065950;28;20059;-73
2023/07/25 02:55:03;;;;;;;5.82;3.22;;;;;;;;;;5055781;28;20502;-73
2023/07/25 02:57:29;;;;;;;4.53;3.47;;;;;;;;;;5056387;28;20029;-73
2023/07/25 02:59:55;;;;;;;4.97;3.47;;;;;;;;;;5050407;28;20024;-73
2023/07/25 03:02:21;;;;;;;5.03;3.20;;;;;;;;;;5061690;28;20048;-73
2023/07/25 03:04:47;;;;;;;4.35;3.08;;;;;;;;;;5060659;28;20029;-73
2023/07/25 03:07:13;;;;;;;4.55;2.92;;;;;;;;;;5053359;28;20124;-73
2023/07/25 03:09:41;;;;;;;4.63;2.88;;;;;;;;;;5069014;28;20112;-72
2023/07/25 03:12:07;;;;;;;6.43;3.60;;;;;;;;;;5070637;28;20028;-73
2023/07/25 03:14:33;;;;;;;4.90;3.13;;;;;;;;;;5060981;28;20107;-73
2023/07/25 03:16:59;;;;;;;5.50;3.33;;;;;;;;;;5053926;28;20112;-72
2023/07/25 03:19:25;;;;;;;4.30;2.90;;;;;;;;;;5055132;28;20048;-73
2023/07/25 03:21:51;;;;;;;4.53;3.10;;;;;;;;;;5058023;28;20040;-73
2023/07/25 03:24:17;;;;;;;4.68;2.90;;;;;;;;;;5061417;28;20025;-72
2023/07/25 03:26:43;;;;;;;5.03;3.08;;;;;;;;;;5058989;28;20032;-73
2023/07/25 03:29:10;;;;;;;4.18;2.95;;;;;;;;;;5063001;28;20064;-73
2023/07/25 03:31:36;;;;;;;4.35;3.20;;;;;;;;;;5060479;28;20028;-75
2023/07/25 03:34:02;;;;;;;4.68;2.90;;;;;;;;;;5059467;28;20045;-74
2023/07/25 03:36:28;;;;;;;3.13;2.83;;;;;;;;;;5065059;28;20044;-74
2023/07/25 03:38:54;;;;;;;5.13;2.97;;;;;;;;;;5060527;28;20357;-73
2023/07/25 03:41:20;;;;;;;4.28;2.90;;;;;;;;;;5057950;28;20020;-74
2023/07/25 03:43:46;;;;;;;3.95;2.78;;;;;;;;;;5057833;28;20491;-73
2023/07/25 03:46:12;;;;;;;4.93;3.03;;;;;;;;;;5060371;28;20054;-73
2023/07/25 03:48:39;;;;;;;7.35;2.83;;;;;;;;;;5070204;28;20028;-72
2023/07/25 03:51:05;;;;;;;4.50;3.08;;;;;;;;;;5069642;28;20406;-73
2023/07/25 03:53:32;;;;;;;4.60;2.97;;;;;;;;;;5070860;28;20510;-72
2023/07/25 03:55:58;;;;;;;4.03;3.05;;;;;;;;;;5059103;28;20036;-72
2023/07/25 03:58:24;;;;;;;7.25;3.65;;;;;;;;;;5056939;28;20081;-73
2023/07/25 04:00:50;;;;;;;4.82;3.55;;;;;;;;;;5064807;28;20016;-72
2023/07/25 04:03:16;;;;;;;5.45;3.85;;;;;;;;;;5066852;28;20073;-73
2023/07/25 04:05:42;;;;;;;7.07;3.08;;;;;;;;;;5068205;28;20016;-72
2023/07/25 04:08:08;;;;;;;6.03;3.75;;;;;;;;;;5067849;28;20025;-73
2023/07/25 04:10:34;;;;;;;6.47;3.38;;;;;;;;;;5068209;28;20025;-72
2023/07/25 04:13:00;;;;;;;5.35;3.25;;;;;;;;;;5067743;28;20046;-73
2023/07/25 04:15:26;;;;;;;5.45;3.00;;;;;;;;;;5062160;28;20077;-73
2023/07/25 04:17:52;;;;;;;4.88;3.58;;;;;;;;;;5053611;28;20582;-73
2023/07/25 04:20:18;;;;;;;3.65;3.05;;;;;;;;;;5066602;28;20112;-72
2023/07/25 04:22:45;;;;;;;5.70;3.40;;;;;;;;;;5061984;28;20028;-73
2023/07/25 04:25:11;;;;;;;13.40;4.70;;;;;;;;;;5064362;28;20033;-73
2023/07/25 04:27:37;;;;;;;3.28;2.80;;;;;;;;;;5071685;28;20387;-73
2023/07/25 04:30:03;;;;;;;5.15;3.80;;;;;;;;;;5058156;28;20024;-72
2023/07/25 04:32:29;;;;;;;5.45;3.83;;;;;;;;;;5056677;28;20109;-73
2023/07/25 04:34:55;;;;;;;6.03;3.65;;;;;;;;;;5054710;28;20051;-73
2023/07/25 04:37:21;;;;;;;5.43;3.25;;;;;;;;;;5055314;28;20076;-72
2023/07/25 04:39:47;;;;;;;5.97;3.38;;;;;;;;;;5067811;28;20992;-72
2023/07/25 04:42:13;;;;;;;5.53;3.10;;;;;;;;;;5063444;28;20435;-72
2023/07/25 04:44:39;;;;;;;5.00;3.10;;;;;;;;;;5069744;28;20031;-72
2023/07/25 04:47:05;;;;;;;4.28;2.90;;;;;;;;;;5058492;28;20472;-72
2023/07/25 04:49:31;;;;;;;4.30;3.03;;;;;;;;;;5063339;28;20028;-72
2023/07/25 04:51:58;;;;;;;3.67;3.00;;;;;;;;;;5062055;28;20067;-71
2023/07/25 04:54:24;;;;;;;4.68;3.05;;;;;;;;;;5052098;28;20029;-72
2023/07/25 04:56:50;;;;;;;4.03;3.22;;;;;;;;;;5063060;28;20028;-73
2023/07/25 04:59:17;;;;;;;4.10;3.20;;;;;;;;;;5060456;28;20533;-71
2023/07/25 05:01:43;;;;;;;4.15;2.97;;;;;;;;;;5073307;28;20028;-72
2023/07/25 05:04:09;;;;;;;4.22;2.92;;;;;;;;;;5059472;28;20055;-73
2023/07/25 05:06:35;;;;;;;5.32;3.13;;;;;;;;;;5072813;28;20085;-74
2023/07/25 05:09:01;;;;;;;5.80;3.15;;;;;;;;;;5074692;28;20024;-73
2023/07/25 05:11:27;;;;;;;4.97;3.30;;;;;;;;;;5053381;28;20060;-72
2023/07/25 05:13:54;;;;;;;4.93;3.63;;;;;;;;;;5056911;28;20453;-72
2023/07/25 05:16:20;;;;;;;5.57;3.28;;;;;;;;;;5062478;28;20040;-72
2023/07/25 05:18:46;;;;;;;4.85;2.90;;;;;;;;;;5061296;28;20021;-73
2023/07/25 05:21:12;;;;;;;5.75;3.53;;;;;;;;;;5061231;28;20494;-72
2023/07/25 05:23:38;;;;;;;4.72;3.15;;;;;;;;;;5069676;28;20036;-73
2023/07/25 05:26:04;;;;;;;4.18;3.28;;;;;;;;;;5056751;28;20107;-73
2023/07/25 05:28:33;;;;;;;8.07;3.83;;;;;;;;;;5061575;28;20025;-73
2023/07/25 05:30:59;;;;;;;6.20;3.58;;;;;;;;;;5059873;28;20024;-73
2023/07/25 05:33:25;;;;;;;4.63;3.13;;;;;;;;;;5060076;28;20499;-73
2023/07/25 05:35:59;;;;;;;5.20;3.00;;;;;;;;;;5058723;28;20028;-73
2023/07/25 05:38:25;;;;;;;6.82;4.03;;;;;;;;;;5057925;28;20067;-73
2023/07/25 05:40:53;;;;;;;6.65;3.72;;;;;;;;;;5052859;28;20614;-73
2023/07/25 05:43:19;;;;;;;4.88;3.22;;;;;;;;;;5063049;28;20370;-73
2023/07/25 05:45:45;;;;;;;5.78;3.38;;;;;;;;;;5057946;28;20032;-72
2023/07/25 05:48:11;;;;;;;5.05;3.15;;;;;;;;;;5053514;28;20095;-72
2023/07/25 05:50:37;;;;;;;4.90;3.08;;;;;;;;;;5048405;28;20032;-73
2023/07/25 05:53:03;;;;;;;5.20;3.63;;;;;;;;;;5058769;28;20021;-73
2023/07/25 05:55:29;;;;;;;5.95;3.20;;;;;;;;;;5064132;28;20483;-72
2023/07/25 05:57:57;;;;;;;7.28;3.08;;;;;;;;;;5065560;28;20035;-77
2023/07/25 06:03:21;;;;;;;5.30;3.30;;;;;;;;;;5054425;28;20039;-72
2023/07/25 06:05:48;;;;;;;5.28;3.38;;;;;;;;;;5063714;28;20025;-73
2023/07/25 06:08:14;;;;;;;8.00;3.22;;;;;;;;;;5066765;28;20017;-73
2023/07/25 06:10:41;;;;;;;4.20;3.08;;;;;;;;;;5061927;28;20026;-72
2023/07/25 06:13:07;;;;;;;5.75;3.28;;;;;;;;;;5061414;28;20469;-73
2023/07/25 06:15:36;;;;;;;4.22;2.83;;;;;;;;;;5064367;28;20016;-73
2023/07/25 06:18:03;;;;;;;6.25;4.07;;;;;;;;;;5062755;28;20025;-73
2023/07/25 06:20:30;;;;;;;4.65;2.90;;;;;;;;;;5066051;28;20060;-73
2023/07/25 06:22:56;;;;;;;4.65;3.05;;;;;;;;;;5058106;28;20112;-73
2023/07/25 06:25:22;;;;;;;5.18;3.03;;;;;;;;;;5059472;28;20028;-73
2023/07/25 06:27:48;;;;;;;8.60;3.55;;;;;;;;;;5060492;28;20040;-72
2023/07/25 06:30:14;;;;;;;5.93;3.08;;;;;;;;;;5062521;28;20054;-73
2023/07/25 06:32:41;;;;;;;5.93;3.33;;;;;;;;;;5069509;28;20029;-73
2023/07/25 06:35:07;;;;;;;7.22;3.60;;;;;;;;;;5052371;28;20033;-73
2023/07/25 06:37:36;;;;;;;5.40;3.50;;;;;;;;;;5053907;28;20045;-73
2023/07/25 06:40:03;;;;;;;7.88;3.40;;;;;;;;;;5054691;28;20041;-73
2023/07/25 06:42:29;;;;;;;6.05;3.13;;;;;;;;;;5057975;28;20033;-73
2023/07/25 06:44:56;;;;;;;5.03;3.55;;;;;;;;;;5057260;28;20099;-73
2023/07/25 06:47:22;;;;;;;4.53;3.22;;;;;;;;;;5056802;28;20039;-73
2023/07/25 06:49:48;;;;;;;6.93;4.65;;;;;;;;;;5051090;28;20052;-73
2023/07/25 06:52:14;;;;;;;5.03;3.35;;;;;;;;;;5056073;28;20056;-73
2023/07/25 06:54:41;;;;;;;5.82;3.30;;;;;;;;;;5057184;28;20145;-73
2023/07/25 06:57:07;;;;;;;7.65;3.58;;;;;;;;;;5055287;28;20027;-74
2023/07/25 06:59:33;;;;;;;6.97;3.05;;;;;;;;;;5054859;28;20024;-73
2023/07/25 07:01:59;;;;;;;6.57;4.07;;;;;;;;;;5056286;28;20029;-73
2023/07/25 07:04:25;;;;;;;3.70;3.28;;;;;;;;;;5058779;28;20785;-74
2023/07/25 07:06:51;;;;;;;7.40;3.45;;;;;;;;;;5061846;28;20522;-74
2023/07/25 07:09:18;;;;;;;5.57;2.90;;;;;;;;;;5057498;28;20093;-74
2023/07/25 07:11:44;;;;;;;4.18;3.78;;;;;;;;;;5083415;28;20464;-73
2023/07/25 07:14:10;;;;;;;4.10;3.00;;;;;;;;;;5074140;28;20029;-75
2023/07/25 07:16:36;;;;;;;8.75;3.30;;;;;;;;;;5057300;28;20095;-73
2023/07/25 07:19:04;;;;;;;7.18;3.63;;;;;;;;;;5056962;28;20070;-73
2023/07/25 07:21:31;;;;;;;6.72;2.80;;;;;;;;;;5056366;28;20021;-73
2023/07/25 07:23:57;;;;;;;3.88;2.80;;;;;;;;;;5061899;28;20028;-74
2023/07/25 07:26:23;;;;;;;4.28;3.25;;;;;;;;;;5059857;28;20029;-74
2023/07/25 07:28:50;;;;;;;5.47;3.08;;;;;;;;;;5074349;28;20127;-74
2023/07/25 07:31:21;;;;;;;4.90;2.97;;;;;;;;;;5050245;28;20102;-75
2023/07/25 07:33:48;;;;;;;3.70;2.92;;;;;;;;;;5047431;28;20527;-75
2023/07/25 07:36:14;;;;;;;3.97;2.97;;;;;;;;;;5060174;28;20036;-74
2023/07/25 07:38:40;;;;;;;7.93;3.20;;;;;;;;;;5050845;28;20027;-76
2023/07/25 07:41:07;;;;;;;4.40;2.83;;;;;;;;;;5050376;28;20025;-74
2023/07/25 07:43:33;;;;;;;7.38;2.70;;;;;;;;;;5067062;28;20038;-74
2023/07/25 07:45:59;;;;;;;3.92;3.22;;;;;;;;;;5054586;28;20028;-74
2023/07/25 07:48:25;;;;;;;3.53;2.78;;;;;;;;;;5057324;28;20027;-74
2023/07/25 07:50:51;;;;;;;5.05;3.00;;;;;;;;;;5055931;28;20070;-75
2023/07/25 07:53:18;;;;;;;3.30;2.70;;;;;;;;;;5060957;28;20036;-75
2023/07/25 07:55:44;;;;;;;4.70;2.70;;;;;;;;;;5059834;28;20518;-74
2023/07/25 07:58:10;;;;;;;4.60;3.05;;;;;;;;;;5056492;28;20044;-75
2023/07/25 08:00:36;;;;;;;4.68;3.20;;;;;;;;;;5056997;28;20471;-75
2023/07/25 08:03:02;;;;;;;4.38;2.85;;;;;;;;;;5063121;28;20025;-74
2023/07/25 08:05:29;;;;;;;6.68;2.95;;;;;;;;;;5061197;28;20028;-74
2023/07/25 08:07:55;;;;;;;3.75;2.65;;;;;;;;;;5064426;28;20054;-73
2023/07/25 08:10:24;;;;;;;3.90;2.63;;;;;;;;;;5064070;28;20391;-73
2023/07/25 08:12:51;;;;;;;4.00;2.50;;;;;;;;;;5050067;28;20052;-72
2023/07/25 08:15:17;;;;;;;4.82;2.63;;;;;;;;;;5056420;28;20502;-74
2023/07/25 08:17:43;;;;;;;4.15;2.65;;;;;;;;;;5056292;28;20032;-73
2023/07/25 08:20:09;;;;;;;4.53;2.63;;;;;;;;;;5051059;28;20024;-74
2023/07/25 08:22:35;;;;;;;4.63;2.80;;;;;;;;;;5056062;28;20131;-72
2023/07/25 08:25:01;;;;;;;3.63;2.53;;;;;;;;;;5044702;28;20127;-74
2023/07/25 08:27:27;;;;;;;4.13;2.80;;;;;;;;;;5052725;28;20388;-73
2023/07/25 08:29:53;;;;;;;4.57;2.70;;;;;;;;;;5044500;28;20082;-74
2023/07/25 08:32:19;;;;;;;3.65;3.00;;;;;;;;;;5055441;28;20037;-70
2023/07/25 08:34:46;;;;;;;4.55;3.03;;;;;;;;;;5059167;28;20043;-71
2023/07/25 08:37:12;;;;;;;3.95;2.60;;;;;;;;;;5053982;28;20044;-70
2023/07/25 08:39:38;;;;;;;6.32;2.83;;;;;;;;;;5057269;28;20036;-72
2023/07/25 08:42:09;;;;;;;3.60;2.38;;;;;;;;;;5054311;28;20103;-71
2023/07/25 08:44:35;;;;;;;5.00;2.67;;;;;;;;;;5052962;28;20069;-68
2023/07/25 08:47:05;;;;;;;4.57;2.38;;;;;;;;;;5057665;28;20032;-71
2023/07/25 08:49:35;;;;;;;2.72;2.13;;;;;;;;;;5056176;28;20645;-71
2023/07/25 08:52:01;;;;;;;4.80;2.50;;;;;;;;;;5056192;28;20036;-73
2023/07/25 08:54:31;;;;;;;3.50;2.72;;;;;;;;;;5057448;28;20467;-70
2023/07/25 08:56:57;;;;;;;3.40;2.70;;;;;;;;;;5053965;28;20351;-73
2023/07/25 08:59:24;;;;;;;2.90;2.20;;;;;;;;;;5058146;28;20040;-71
2023/07/25 09:01:51;;;;;;;4.40;2.83;;;;;;;;;;5058263;28;20087;-73
2023/07/25 09:04:18;;;;;;;7.28;2.85;;;;;;;;;;5054086;28;20496;-72
2023/07/25 09:06:45;;;;;;;4.25;2.33;;;;;;;;;;5062252;28;20450;-70
2023/07/25 09:09:11;;;;;;;2.78;2.40;;;;;;;;;;5056264;28;20115;-72
2023/07/25 09:11:37;;;;;;;3.17;2.35;;;;;;;;;;5058128;28;20032;-73
2023/07/25 09:14:03;;;;;;;5.60;3.17;;;;;;;;;;5060269;28;20777;-72
2023/07/25 09:16:33;;;;;;;3.95;2.50;;;;;;;;;;5066550;28;20033;-70
2023/07/25 09:18:59;;;;;;;4.05;2.97;;;;;;;;;;5063677;28;20488;-72
2023/07/25 09:21:25;;;;;;;5.13;2.75;;;;;;;;;;5054478;28;20075;-72
2023/07/25 09:23:52;;;;;;;3.92;2.33;;;;;;;;;;5057055;28;20542;-71
2023/07/25 09:26:21;;;;;;;3.22;2.60;;;;;;;;;;5057694;28;20036;-72
2023/07/25 09:28:51;;;;;;;3.90;2.65;;;;;;;;;;5055162;28;20113;-72
2023/07/25 09:31:18;;;;;;;5.30;2.60;;;;;;;;;;5058355;28;20419;-70
2023/07/25 09:33:47;;;;;;;3.95;2.47;;;;;;;;;;5056058;28;20515;-70
2023/07/25 09:36:13;;;;;;;3.45;2.65;;;;;;;;;;5058521;28;20036;-71
2023/07/25 09:38:54;;;;;;;4.43;2.90;;;;;;;;;;5057032;28;20052;-73
2023/07/25 09:41:20;;;;;;;5.22;2.75;;;;;;;;;;5055661;28;20751;-74
2023/07/25 09:43:46;;;;;;;6.10;2.88;;;;;;;;;;5055535;28;20111;-74
2023/07/25 09:46:13;;;;;;;4.53;2.92;;;;;;;;;;5056598;28;20037;-71
2023/07/25 09:48:46;;;;;;;5.13;2.90;;;;;;;;;;5061210;28;20373;-70
2023/07/25 09:51:13;;;;;;;5.22;3.35;;;;;;;;;;5056300;28;20032;-71
2023/07/25 09:53:42;;;;;;;3.58;2.88;;;;;;;;;;5057464;28;20507;-73
2023/07/25 09:56:08;;;;;;;4.82;2.90;;;;;;;;;;5059426;28;20208;-73
2023/07/25 09:58:35;;;;;;;5.97;3.17;;;;;;;;;;5056833;28;20725;-73
2023/07/25 10:01:03;;;;;;;4.90;3.15;;;;;;;;;;5056537;28;20534;-74
2023/07/25 10:03:29;;;;;;;4.28;2.90;;;;;;;;;;5057613;28;20756;-72
2023/07/25 10:05:56;;;;;;;4.80;3.28;;;;;;;;;;5053903;28;20520;-72
2023/07/25 10:08:25;;;;;;;4.80;3.15;;;;;;;;;;5059476;28;20032;-72
2023/07/25 10:10:51;;;;;;;6.15;3.58;;;;;;;;;;5049373;28;20029;-73
2023/07/25 10:13:18;;;;;;;4.78;3.30;;;;;;;;;;5054779;28;20403;-72
2023/07/25 10:15:44;;;;;;;7.55;4.05;;;;;;;;;;5045160;28;21001;-73
2023/07/25 10:18:26;;;;;;;6.07;3.70;;;;;;;;;;5052869;28;20090;-67
2023/07/25 10:20:53;;;;;;;5.05;3.45;;;;;;;;;;5054269;28;20029;-73
2023/07/25 10:23:19;;;;;;;4.30;3.13;;;;;;;;;;5063845;28;20032;-70
2023/07/25 10:25:46;;;;;;;6.32;3.70;;;;;;;;;;5054012;28;20031;-71
2023/07/25 10:28:13;;;;;;;6.07;4.10;;;;;;;;;;5053434;28;20111;-69
2023/07/25 10:30:43;;;;;;;6.07;3.72;;;;;;;;;;5065399;28;20052;-72
2023/07/25 10:33:09;;;;;;;7.28;4.43;;;;;;;;;;5054226;28;20035;-72
2023/07/25 10:35:39;;;;;;;7.68;4.32;;;;;;;;;;5056223;28;20448;-70
2023/07/25 10:38:12;;;;;;;8.55;3.65;;;;;;;;;;5049980;28;20086;-72
2023/07/25 10:40:54;;;;;;;5.32;4.13;;;;;;;;;;5055719;28;20443;-72
2023/07/25 10:43:21;;;;;;;6.55;4.43;;;;;;;;;;5052583;28;20029;-69
2023/07/25 10:45:49;;;;;;;5.53;4.15;;;;;;;;;;5053048;28;20028;-70
2023/07/25 10:48:28;;;;;;;7.65;3.75;;;;;;;;;;5054701;28;20109;-72
2023/07/25 10:50:54;;;;;;;6.72;4.65;;;;;;;;;;5051222;28;20052;-71
2023/07/25 10:53:21;;;;;;;7.00;4.68;;;;;;;;;;5053212;28;20033;-71
2023/07/25 10:56:07;;;;;;;6.82;4.05;;;;;;;;;;5052524;28;20028;-70
2023/07/25 10:58:34;;;;;;;5.80;4.20;;;;;;;;;;5057143;28;20025;-66
2023/07/25 11:01:01;;;;;;;6.68;3.80;;;;;;;;;;5050311;28;20029;-71
2023/07/25 11:03:37;;;;;;;6.18;4.32;;;;;;;;;;5052987;28;20060;-74
2023/07/25 11:06:08;;;;;;;6.72;3.90;;;;;;;;;;5052887;28;20103;-74
2023/07/25 11:08:35;;;;;;;5.40;4.25;;;;;;;;;;5050053;28;20028;-74
2023/07/25 11:11:05;;;;;;;6.78;4.28;;;;;;;;;;5053444;28;20484;-74
2023/07/25 11:13:32;;;;;;;6.68;4.15;;;;;;;;;;5051857;28;20025;-74
2023/07/25 11:16:01;;;;;;;7.78;4.68;;;;;;;;;;5054391;28;20035;-74
2023/07/25 11:18:27;;;;;;;5.80;3.95;;;;;;;;;;5052063;28;20032;-74
2023/07/25 11:21:00;;;;;;;8.27;4.07;;;;;;;;;;5054735;28;20035;-74
2023/07/25 11:23:26;;;;;;;7.45;4.38;;;;;;;;;;5051136;28;20105;-72
2023/07/25 11:25:54;;;;;;;6.63;4.13;;;;;;;;;;5056214;28;20033;-72
2023/07/25 11:28:21;;;;;;;6.68;4.20;;;;;;;;;;5050557;28;20046;-72
2023/07/25 11:30:47;;;;;;;6.30;3.80;;;;;;;;;;5066459;28;20663;-72
2023/07/25 11:33:14;;;;;;;6.10;3.92;;;;;;;;;;5053248;28;20029;-71
2023/07/25 11:35:40;;;;;;;7.10;4.63;;;;;;;;;;5052605;28;20040;-72
2023/07/25 11:38:06;;;;;;;5.13;3.90;;;;;;;;;;5052460;28;20048;-72
2023/07/25 11:40:32;;;;;;;6.05;3.38;;;;;;;;;;5069167;28;20028;-72
2023/07/25 11:42:58;;;;;;;6.55;4.25;;;;;;;;;;5051153;28;20472;-72
2023/07/25 11:45:24;;;;;;;6.18;4.10;;;;;;;;;;5055597;28;20901;-72
2023/07/25 11:47:51;;;;;;;7.60;4.53;;;;;;;;;;5052887;28;20039;-72
2023/07/25 11:50:21;;;;;;;8.27;4.15;;;;;;;;;;5055737;28;20569;-70
2023/07/25 11:52:48;;;;;;;8.43;4.22;;;;;;;;;;5051092;28;20029;-71
2023/07/25 11:55:14;;;;;;;9.95;4.93;;;;;;;;;;5057007;28;21386;-74
2023/07/25 11:57:41;;;;;;;7.00;5.03;;;;;;;;;;5052935;28;20029;-73
2023/07/25 12:00:09;;;;;;;6.78;4.38;;;;;;;;;;5055816;28;20871;-71
2023/07/25 12:02:36;;;;;;;5.35;4.18;;;;;;;;;;5055798;28;20113;-74
2023/07/25 12:05:03;;;;;;;6.80;4.55;;;;;;;;;;5052210;28;20028;-72
2023/07/25 12:07:49;;;;;;;6.20;4.43;;;;;;;;;;5052361;28;20132;-72
2023/07/25 12:10:25;;;;;;;8.40;4.95;;;;;;;;;;5057824;28;20072;-72
2023/07/25 12:12:51;;;;;;;6.95;4.55;;;;;;;;;;5058589;28;20054;-70
2023/07/25 12:15:17;;;;;;;6.47;4.05;;;;;;;;;;5053661;28;20111;-75
2023/07/25 12:17:44;;;;;;;6.90;4.47;;;;;;;;;;5072001;28;20094;-75
2023/07/25 12:20:17;;;;;;;6.25;4.40;;;;;;;;;;5069606;28;20039;-75
2023/07/25 12:22:44;;;;;;;7.00;4.63;;;;;;;;;;5056645;28;20024;-75
2023/07/25 12:25:11;;;;;;;7.88;4.97;;;;;;;;;;5050702;28;20091;-75
2023/07/25 12:27:44;;;;;;;6.88;4.10;;;;;;;;;;5055268;28;20458;-75
2023/07/25 12:30:11;;;;;;;4.63;3.65;;;;;;;;;;5053857;28;20553;-74
2023/07/25 12:32:37;;;;;;;6.80;4.20;;;;;;;;;;5059342;28;20179;-75
2023/07/25 12:35:05;;;;;;;6.82;4.55;;;;;;;;;;5056314;28;20138;-74
2023/07/25 12:37:32;;;;;;;5.70;4.13;;;;;;;;;;5061700;28;20147;-76
2023/07/25 12:39:58;;;;;;;8.27;4.32;;;;;;;;;;5059040;28;20028;-74
2023/07/25 12:42:24;;;;;;;7.25;4.50;;;;;;;;;;5061678;28;20131;-75
2023/07/25 12:44:53;;;;;;;6.45;4.00;;;;;;;;;;5077440;28;20024;-74
2023/07/25 12:47:19;;;;;;;6.03;4.38;;;;;;;;;;5057828;28;20032;-75
2023/07/25 12:49:45;;;;;;;5.05;3.60;;;;;;;;;;5058629;28;20064;-73
2023/07/25 12:52:11;;;;;;;7.80;4.40;;;;;;;;;;5057844;28;20521;-73
2023/07/25 12:54:38;;;;;;;6.35;4.15;;;;;;;;;;5056037;28;20066;-73
2023/07/25 12:57:04;;;;;;;7.05;4.00;;;;;;;;;;5054369;28;20119;-73
2023/07/25 12:59:30;;;;;;;6.45;3.75;;;;;;;;;;5052629;28;20021;-74
2023/07/25 13:01:59;;;;;;;6.70;4.95;;;;;;;;;;5058820;28;20029;-74
2023/07/25 13:04:30;;;;;;;6.07;3.97;;;;;;;;;;5063869;28;20336;-75
2023/07/25 13:06:56;;;;;;;6.63;4.55;;;;;;;;;;5058562;28;20100;-74
2023/07/25 13:09:23;;;;;;;6.88;4.30;;;;;;;;;;5074882;28;20033;-74
2023/07/25 13:11:49;;;;;;;7.93;4.90;;;;;;;;;;5052465;28;20086;-74
2023/07/25 13:14:15;;;;;;;7.15;4.47;;;;;;;;;;5057971;28;20380;-74
2023/07/25 13:16:41;;;;;;;7.32;4.47;;;;;;;;;;5056999;28;20039;-73
2023/07/25 13:19:11;;;;;;;7.38;4.50;;;;;;;;;;5054104;28;20078;-72
2023/07/25 13:21:40;;;;;;;6.03;4.28;;;;;;;;;;5054610;28;20032;-73
2023/07/25 13:24:06;;;;;;;7.72;5.30;;;;;;;;;;5055836;28;20033;-75
2023/07/25 13:26:33;;;;;;;6.95;4.40;;;;;;;;;;5053790;28;20504;-76
2023/07/25 13:28:59;;;;;;;5.97;4.00;;;;;;;;;;5056669;28;20033;-75
2023/07/25 13:31:25;;;;;;;8.23;5.28;;;;;;;;;;5056843;28;20043;-72
2023/07/25 13:33:51;;;;;;;7.63;4.43;;;;;;;;;;5055806;28;20130;-74
2023/07/25 13:36:17;;;;;;;6.90;4.28;;;;;;;;;;5054218;28;20024;-74
2023/07/25 13:38:43;;;;;;;6.90;4.15;;;;;;;;;;5055941;28;20025;-74
2023/07/25 13:41:09;;;;;;;7.53;4.40;;;;;;;;;;5053466;28;20036;-73
2023/07/25 13:43:36;;;;;;;6.85;4.85;;;;;;;;;;5058832;28;20309;-72
2023/07/25 13:46:02;;;;;;;6.60;4.30;;;;;;;;;;5056412;28;20025;-73
2023/07/25 13:48:28;;;;;;;6.78;4.10;;;;;;;;;;5051559;28;20033;-75
2023/07/25 13:50:54;;;;;;;7.72;4.38;;;;;;;;;;5056369;28;20511;-67
2023/07/25 13:53:20;;;;;;;5.15;3.72;;;;;;;;;;5050920;28;20364;-67
2023/07/25 13:55:47;;;;;;;8.70;4.50;;;;;;;;;;5051496;28;20052;-72
2023/07/25 13:58:14;;;;;;;8.32;4.93;;;;;;;;;;5058761;28;20115;-77
2023/07/25 14:00:40;;;;;;;7.68;4.65;;;;;;;;;;5055936;28;20032;-72
2023/07/25 14:03:06;;;;;;;7.78;4.65;;;;;;;;;;5058406;28;20472;-77
2023/07/25 14:05:32;;;;;;;6.80;4.15;;;;;;;;;;5057046;28;20511;-73
2023/07/25 14:08:01;;;;;;;6.93;4.63;;;;;;;;;;5058644;28;20032;-75
2023/07/25 14:10:27;;;;;;;6.90;4.85;;;;;;;;;;5053238;28;20036;-77
2023/07/25 14:12:53;;;;;;;10.00;4.50;;;;;;;;;;5059851;28;20112;-77
2023/07/25 14:15:19;;;;;;;6.85;4.30;;;;;;;;;;5054359;28;20434;-75
2023/07/25 14:17:45;;;;;;;6.53;3.90;;;;;;;;;;5054959;28;20426;-75
2023/07/25 14:20:11;;;;;;;7.40;4.70;;;;;;;;;;5057919;28;20070;-76
2023/07/25 14:22:37;;;;;;;6.72;4.10;;;;;;;;;;5055472;28;20024;-75
2023/07/25 14:25:04;;;;;;;8.48;4.63;;;;;;;;;;5056043;28;20445;-75
2023/07/25 14:27:30;;;;;;;6.80;4.88;;;;;;;;;;5056241;28;20090;-75
2023/07/25 14:29:56;;;;;;;7.07;4.82;;;;;;;;;;5056539;28;20052;-75
2023/07/25 14:32:22;;;;;;;6.30;4.43;;;;;;;;;;5058132;28;20117;-75
2023/07/25 14:34:50;;;;;;;7.82;4.40;;;;;;;;;;5053093;28;20071;-75
2023/07/25 14:37:16;;;;;;;7.13;4.35;;;;;;;;;;5071800;28;20147;-75
2023/07/25 14:39:42;;;;;;;6.25;4.47;;;;;;;;;;5068064;28;20033;-75
2023/07/25 14:42:08;;;;;;;8.45;4.88;;;;;;;;;;5055889;28;20391;-75
2023/07/25 14:44:34;;;;;;;9.45;4.85;;;;;;;;;;5054433;28;20119;-74